createdAt,value
2019-04-29T00:00:32.094Z,0.00
2019-04-29T00:01:32.087Z,0.00
2019-04-29T00:02:32.079Z,0.00
2019-04-29T00:03:32.098Z,0.00
2019-04-29T00:04:32.059Z,0.00
2019-04-29T00:05:32.052Z,0.00
2019-04-29T00:06:32.056Z,0.00
2019-04-29T00:07:32.040Z,0.00
2019-04-29T00:08:32.022Z,0.00
2019-04-29T00:09:32.017Z,0.00
2019-04-29T00:10:31.993Z,0.00
2019-04-29T00:11:31.979Z,0.00
2019-04-29T00:12:32.010Z,0.00
2019-04-29T00:13:31.987Z,0.00
2019-04-29T00:14:31.954Z,0.00
2019-04-29T00:15:31.948Z,0.00
2019-04-29T00:16:31.967Z,0.00
2019-04-29T00:17:31.943Z,0.00
2019-04-29T00:18:31.917Z,0.00
2019-04-29T00:19:31.904Z,0.00
2019-04-29T00:20:31.923Z,0.00
2019-04-29T00:21:31.932Z,0.00
2019-04-29T00:22:31.869Z,0.00
2019-04-29T00:23:31.907Z,0.00
2019-04-29T00:24:31.852Z,0.00
2019-04-29T00:25:31.837Z,0.00
2019-04-29T00:26:31.849Z,0.00
2019-04-29T00:27:31.828Z,0.00
2019-04-29T00:28:31.831Z,0.00
2019-04-29T00:29:31.807Z,0.00
2019-04-29T00:30:31.783Z,0.00
2019-04-29T00:31:31.768Z,0.00
2019-04-29T00:32:31.791Z,0.00
2019-04-29T00:33:31.759Z,0.00
2019-04-29T00:34:31.761Z,0.00
2019-04-29T00:35:31.729Z,0.00
2019-04-29T00:36:31.734Z,0.00
2019-04-29T00:37:31.706Z,0.00
2019-04-29T00:38:31.712Z,0.00
2019-04-29T00:39:31.700Z,0.00
2019-04-29T00:40:31.731Z,0.00
2019-04-29T00:41:31.664Z,0.00
2019-04-29T00:42:31.652Z,0.00
2019-04-29T00:43:31.672Z,0.00
2019-04-29T00:44:31.661Z,0.00
2019-04-29T00:45:31.666Z,0.00
2019-04-29T00:46:31.618Z,0.00
2019-04-29T00:47:31.604Z,0.00
2019-04-29T00:48:31.619Z,0.00
2019-04-29T00:49:31.584Z,0.00
2019-04-29T00:50:31.574Z,0.00
2019-04-29T00:51:31.548Z,0.00
2019-04-29T00:52:31.568Z,0.00
2019-04-29T00:53:31.536Z,0.00
2019-04-29T00:54:31.550Z,0.00
2019-04-29T00:55:31.506Z,0.00
2019-04-29T00:56:31.500Z,0.00
2019-04-29T00:57:31.583Z,0.00
2019-04-29T00:58:31.523Z,0.00
2019-04-29T00:59:31.476Z,0.00
2019-04-29T01:00:31.505Z,0.00
2019-04-29T01:01:31.446Z,0.00
2019-04-29T01:02:31.443Z,0.00
2019-04-29T01:03:31.425Z,0.00
2019-04-29T01:04:31.433Z,0.00
2019-04-29T01:05:31.411Z,0.00
2019-04-29T01:06:31.422Z,0.00
2019-04-29T01:07:31.386Z,0.00
2019-04-29T01:08:31.400Z,0.00
2019-04-29T01:09:31.403Z,0.00
2019-04-29T01:10:31.349Z,0.00
2019-04-29T01:11:31.334Z,0.00
2019-04-29T01:12:31.336Z,0.00
2019-04-29T01:13:31.315Z,0.00
2019-04-29T01:14:31.385Z,0.00
2019-04-29T01:15:31.299Z,0.00
2019-04-29T01:16:31.333Z,0.00
2019-04-29T01:17:31.298Z,0.00
2019-04-29T01:18:31.279Z,0.00
2019-04-29T01:19:31.296Z,0.00
2019-04-29T01:20:31.247Z,0.00
2019-04-29T01:21:31.285Z,0.00
2019-04-29T01:22:31.223Z,0.00
2019-04-29T01:23:31.229Z,0.00
2019-04-29T01:24:31.216Z,0.00
2019-04-29T01:25:31.256Z,0.00
2019-04-29T01:26:31.240Z,0.00
2019-04-29T01:27:31.179Z,0.00
2019-04-29T01:28:31.159Z,0.00
2019-04-29T01:29:31.168Z,0.00
2019-04-29T01:30:31.141Z,0.00
2019-04-29T01:31:31.131Z,0.00
2019-04-29T01:32:31.122Z,0.00
2019-04-29T01:33:31.107Z,0.00
2019-04-29T01:34:31.092Z,0.00
2019-04-29T01:35:31.106Z,0.00
2019-04-29T01:36:31.074Z,0.00
2019-04-29T01:37:31.072Z,0.00
2019-04-29T01:38:31.064Z,0.00
2019-04-29T01:39:31.067Z,0.00
2019-04-29T01:40:31.091Z,0.00
2019-04-29T01:41:31.044Z,0.00
2019-04-29T01:42:31.048Z,0.00
2019-04-29T01:43:31.039Z,0.00
2019-04-29T01:44:30.997Z,0.00
2019-04-29T01:45:30.984Z,0.00
2019-04-29T01:46:30.987Z,0.00
2019-04-29T01:47:30.959Z,0.00
2019-04-29T01:48:30.957Z,0.00
2019-04-29T01:49:30.971Z,0.00
2019-04-29T01:50:31.032Z,0.00
2019-04-29T01:51:30.928Z,0.00
2019-04-29T01:52:30.907Z,0.00
2019-04-29T01:53:30.946Z,0.00
2019-04-29T01:54:30.959Z,0.00
2019-04-29T01:55:30.906Z,0.00
2019-04-29T01:56:30.897Z,0.00
2019-04-29T01:57:30.891Z,0.00
2019-04-29T01:58:30.860Z,0.00
2019-04-29T01:59:31.061Z,0.00
2019-04-29T02:00:30.849Z,0.00
2019-04-29T02:01:30.823Z,0.00
2019-04-29T02:02:30.866Z,0.00
2019-04-29T02:03:30.835Z,0.00
2019-04-29T02:04:30.830Z,0.00
2019-04-29T02:05:30.782Z,0.00
2019-04-29T02:06:30.800Z,0.00
2019-04-29T02:07:30.779Z,0.00
2019-04-29T02:08:30.759Z,0.00
2019-04-29T02:09:30.745Z,0.00
2019-04-29T02:10:30.738Z,0.00
2019-04-29T02:11:30.711Z,0.00
2019-04-29T02:12:30.723Z,0.00
2019-04-29T02:13:30.693Z,0.00
2019-04-29T02:14:30.697Z,0.00
2019-04-29T02:15:30.708Z,0.00
2019-04-29T02:16:30.695Z,0.00
2019-04-29T02:17:30.657Z,0.00
2019-04-29T02:18:30.651Z,0.00
2019-04-29T02:19:30.646Z,0.00
2019-04-29T02:20:30.857Z,0.00
2019-04-29T02:21:30.642Z,0.00
2019-04-29T02:22:30.602Z,0.00
2019-04-29T02:23:30.622Z,0.00
2019-04-29T02:24:30.582Z,0.00
2019-04-29T02:25:30.604Z,0.00
2019-04-29T02:26:30.566Z,0.00
2019-04-29T02:27:30.603Z,0.00
2019-04-29T02:28:30.554Z,0.00
2019-04-29T02:29:30.535Z,0.00
2019-04-29T02:30:30.523Z,0.00
2019-04-29T02:31:30.509Z,0.00
2019-04-29T02:32:30.514Z,0.00
2019-04-29T02:33:30.523Z,0.00
2019-04-29T02:34:30.513Z,0.00
2019-04-29T02:35:30.499Z,0.00
2019-04-29T02:36:30.514Z,0.00
2019-04-29T02:37:30.460Z,0.00
2019-04-29T02:38:30.434Z,0.00
2019-04-29T02:39:30.569Z,0.00
2019-04-29T02:40:30.471Z,0.00
2019-04-29T02:41:30.436Z,0.00
2019-04-29T02:42:30.405Z,0.00
2019-04-29T02:43:30.400Z,0.00
2019-04-29T02:44:30.396Z,0.00
2019-04-29T02:45:30.374Z,0.00
2019-04-29T02:46:30.382Z,0.00
2019-04-29T02:47:30.434Z,0.00
2019-04-29T02:48:34.476Z,0.00
2019-04-29T02:49:30.328Z,0.00
2019-04-29T02:50:30.451Z,0.00
2019-04-29T02:51:30.330Z,0.00
2019-04-29T02:52:30.311Z,0.00
2019-04-29T02:53:30.274Z,0.00
2019-04-29T02:54:30.261Z,0.00
2019-04-29T02:55:30.261Z,0.00
2019-04-29T02:56:30.253Z,0.00
2019-04-29T02:57:30.248Z,0.00
2019-04-29T02:58:30.338Z,0.00
2019-04-29T02:59:30.212Z,0.00
2019-04-29T03:00:30.223Z,0.00
2019-04-29T03:01:30.194Z,0.00
2019-04-29T03:02:30.212Z,0.00
2019-04-29T03:03:30.207Z,0.00
2019-04-29T03:04:30.175Z,0.00
2019-04-29T03:05:30.171Z,0.00
2019-04-29T03:06:30.195Z,0.00
2019-04-29T03:07:30.193Z,0.00
2019-04-29T03:08:30.153Z,0.00
2019-04-29T03:09:30.122Z,0.00
2019-04-29T03:10:30.106Z,0.00
2019-04-29T03:11:30.090Z,0.00
2019-04-29T03:12:30.093Z,0.00
2019-04-29T03:13:30.088Z,0.00
2019-04-29T03:14:30.083Z,0.00
2019-04-29T03:15:30.047Z,0.00
2019-04-29T03:16:30.041Z,0.00
2019-04-29T03:17:30.027Z,0.00
2019-04-29T03:18:30.015Z,0.00
2019-04-29T03:19:30.026Z,0.00
2019-04-29T03:20:29.993Z,0.00
2019-04-29T03:21:30.001Z,0.00
2019-04-29T03:22:29.997Z,0.00
2019-04-29T03:23:30.011Z,0.00
2019-04-29T03:24:29.995Z,0.00
2019-04-29T03:25:29.966Z,0.00
2019-04-29T03:26:29.928Z,0.00
2019-04-29T03:27:29.916Z,0.00
2019-04-29T03:28:29.909Z,0.00
2019-04-29T03:29:29.904Z,0.00
2019-04-29T03:30:29.940Z,0.00
2019-04-29T03:31:29.936Z,0.00
2019-04-29T03:32:29.876Z,0.00
2019-04-29T03:33:29.875Z,0.00
2019-04-29T03:34:29.862Z,0.00
2019-04-29T03:35:29.842Z,0.00
2019-04-29T03:36:29.959Z,0.00
2019-04-29T03:37:29.819Z,4.00
2019-04-29T03:38:29.798Z,4.00
2019-04-29T03:39:29.818Z,4.00
2019-04-29T03:40:29.810Z,0.00
2019-04-29T03:41:29.809Z,4.00
2019-04-29T03:42:29.753Z,4.00
2019-04-29T03:43:29.744Z,4.00
2019-04-29T03:44:29.909Z,4.00
2019-04-29T03:45:29.728Z,8.00
2019-04-29T03:46:29.759Z,8.00
2019-04-29T03:47:29.730Z,8.00
2019-04-29T03:48:29.779Z,8.00
2019-04-29T03:49:29.716Z,16.00
2019-04-29T03:50:29.675Z,16.00
2019-04-29T03:51:29.666Z,20.00
2019-04-29T03:52:29.666Z,16.00
2019-04-29T03:53:29.657Z,20.00
2019-04-29T03:54:29.665Z,24.00
2019-04-29T03:55:38.887Z,28.00
2019-04-29T03:56:30.615Z,32.00
2019-04-29T03:57:29.610Z,36.00
2019-04-29T03:58:29.608Z,40.00
2019-04-29T03:59:29.631Z,48.00
2019-04-29T04:00:29.625Z,52.00
2019-04-29T04:01:29.555Z,60.00
2019-04-29T04:02:29.567Z,68.00
2019-04-29T04:03:29.546Z,72.00
2019-04-29T04:04:29.548Z,84.00
2019-04-29T04:05:29.551Z,92.00
2019-04-29T04:06:29.507Z,100.00
2019-04-29T04:07:29.622Z,116.00
2019-04-29T04:08:29.484Z,128.00
2019-04-29T04:09:29.490Z,140.00
2019-04-29T04:10:29.484Z,160.00
2019-04-29T04:11:29.480Z,180.00
2019-04-29T04:12:29.475Z,200.00
2019-04-29T04:13:29.433Z,220.00
2019-04-29T04:14:29.437Z,240.00
2019-04-29T04:15:29.410Z,260.00
2019-04-29T04:16:29.464Z,272.00
2019-04-29T04:17:29.390Z,276.00
2019-04-29T04:18:29.384Z,288.00
2019-04-29T04:19:29.451Z,312.00
2019-04-29T04:20:29.350Z,336.00
2019-04-29T04:21:29.416Z,364.00
2019-04-29T04:22:29.345Z,380.00
2019-04-29T04:23:29.331Z,388.00
2019-04-29T04:24:29.324Z,392.00
2019-04-29T04:25:29.330Z,388.00
2019-04-29T04:26:29.500Z,396.00
2019-04-29T04:27:29.289Z,412.00
2019-04-29T04:28:29.271Z,428.00
2019-04-29T04:29:29.282Z,452.00
2019-04-29T04:30:29.250Z,476.00
2019-04-29T04:31:29.300Z,488.00
2019-04-29T04:32:29.237Z,520.00
2019-04-29T04:33:29.218Z,548.00
2019-04-29T04:34:29.221Z,588.00
2019-04-29T04:35:29.292Z,624.00
2019-04-29T04:36:29.185Z,660.00
2019-04-29T04:37:29.190Z,704.00
2019-04-29T04:38:29.167Z,756.00
2019-04-29T04:39:29.190Z,780.00
2019-04-29T04:40:29.158Z,800.00
2019-04-29T04:41:29.223Z,816.00
2019-04-29T04:42:30.160Z,840.00
2019-04-29T04:43:29.192Z,840.00
2019-04-29T04:44:29.160Z,844.00
2019-04-29T04:45:29.109Z,836.00
2019-04-29T04:46:29.116Z,836.00
2019-04-29T04:47:29.148Z,836.00
2019-04-29T04:48:29.129Z,848.00
2019-04-29T04:49:29.154Z,868.00
2019-04-29T04:50:29.233Z,892.00
2019-04-29T04:51:29.171Z,916.00
2019-04-29T04:52:29.040Z,940.00
2019-04-29T04:53:29.061Z,964.00
2019-04-29T04:54:31.427Z,992.00
2019-04-29T04:55:29.114Z,1024.00
2019-04-29T04:56:29.012Z,1056.00
2019-04-29T04:57:28.962Z,1096.00
2019-04-29T04:58:29.021Z,1128.00
2019-04-29T04:59:29.011Z,1172.00
2019-04-29T05:00:29.114Z,1196.00
2019-04-29T05:01:28.951Z,1224.00
2019-04-29T05:02:28.987Z,1252.00
2019-04-29T05:03:28.974Z,1264.00
2019-04-29T05:04:28.948Z,1284.00
2019-04-29T05:05:28.916Z,1280.00
2019-04-29T05:06:29.019Z,1268.00
2019-04-29T05:07:28.912Z,1272.00
2019-04-29T05:08:28.905Z,1268.00
2019-04-29T05:09:28.906Z,1320.00
2019-04-29T05:10:28.853Z,1300.00
2019-04-29T05:11:28.810Z,1292.00
2019-04-29T05:12:28.920Z,1284.00
2019-04-29T05:13:28.918Z,1320.00
2019-04-29T05:14:28.815Z,1420.00
2019-04-29T05:15:28.829Z,1484.00
2019-04-29T05:16:28.797Z,1520.00
2019-04-29T05:17:28.789Z,1544.00
2019-04-29T05:18:28.880Z,1588.00
2019-04-29T05:19:28.738Z,1632.00
2019-04-29T05:20:28.768Z,1676.00
2019-04-29T05:21:28.870Z,1716.00
2019-04-29T05:22:28.730Z,1744.00
2019-04-29T05:23:28.776Z,1760.00
2019-04-29T05:24:28.712Z,1780.00
2019-04-29T05:25:28.713Z,1800.00
2019-04-29T05:26:28.710Z,1844.00
2019-04-29T05:27:28.687Z,1832.00
2019-04-29T05:28:28.708Z,1848.00
2019-04-29T05:29:28.893Z,1852.00
2019-04-29T05:30:28.683Z,1860.00
2019-04-29T05:31:28.662Z,1864.00
2019-04-29T05:32:28.665Z,1860.00
2019-04-29T05:33:28.693Z,1856.00
2019-04-29T05:34:28.624Z,1840.00
2019-04-29T05:35:28.591Z,1824.00
2019-04-29T05:36:28.679Z,1820.00
2019-04-29T05:37:28.570Z,1812.00
2019-04-29T05:38:28.597Z,1812.00
2019-04-29T05:39:28.549Z,1816.00
2019-04-29T05:40:28.553Z,1800.00
2019-04-29T05:41:30.077Z,1768.00
2019-04-29T05:42:29.525Z,1812.00
2019-04-29T05:43:31.951Z,1816.00
2019-04-29T05:44:29.515Z,1812.00
2019-04-29T05:45:28.508Z,1840.00
2019-04-29T05:46:28.576Z,1872.00
2019-04-29T05:47:28.460Z,1880.00
2019-04-29T05:48:32.109Z,1892.00
2019-04-29T05:49:28.530Z,1908.00
2019-04-29T05:50:28.435Z,1912.00
2019-04-29T05:51:28.615Z,1900.00
2019-04-29T05:52:30.202Z,1888.00
2019-04-29T05:53:28.415Z,1880.00
2019-04-29T05:54:31.714Z,1860.00
2019-04-29T05:55:29.372Z,1848.00
2019-04-29T05:56:28.483Z,1836.00
2019-04-29T05:57:28.446Z,1808.00
2019-04-29T05:58:28.315Z,1788.00
2019-04-29T05:59:28.311Z,1788.00
2019-04-29T06:00:28.318Z,1836.00
2019-04-29T06:01:28.288Z,1908.00
2019-04-29T06:02:33.267Z,1952.00
2019-04-29T06:03:29.335Z,1976.00
2019-04-29T06:04:28.710Z,1960.00
2019-04-29T06:05:28.237Z,1916.00
2019-04-29T06:06:28.227Z,1908.00
2019-04-29T06:07:28.239Z,1924.00
2019-04-29T06:08:28.229Z,1984.00
2019-04-29T06:09:28.254Z,2072.00
2019-04-29T06:10:28.197Z,2116.00
2019-04-29T06:11:28.229Z,2124.00
2019-04-29T06:12:28.289Z,2132.00
2019-04-29T06:13:28.182Z,2132.00
2019-04-29T06:14:28.160Z,2136.00
2019-04-29T06:15:28.148Z,2156.00
2019-04-29T06:16:28.136Z,2180.00
2019-04-29T06:17:28.138Z,2200.00
2019-04-29T06:18:28.150Z,2056.00
2019-04-29T06:19:28.119Z,2000.00
2019-04-29T06:20:28.120Z,2072.00
2019-04-29T06:21:28.090Z,1892.00
2019-04-29T06:22:28.078Z,1860.00
2019-04-29T06:23:28.057Z,1748.00
2019-04-29T06:24:28.062Z,1808.00
2019-04-29T06:25:28.062Z,1704.00
2019-04-29T06:26:28.031Z,1708.00
2019-04-29T06:27:28.051Z,1648.00
2019-04-29T06:28:28.240Z,1808.00
2019-04-29T06:29:27.987Z,1748.00
2019-04-29T06:30:27.997Z,1868.00
2019-04-29T06:31:27.961Z,1980.00
2019-04-29T06:32:28.028Z,2152.00
2019-04-29T06:33:29.278Z,2268.00
2019-04-29T06:34:27.994Z,2336.00
2019-04-29T06:35:27.960Z,2152.00
2019-04-29T06:36:27.928Z,2336.00
2019-04-29T06:37:27.992Z,2412.00
2019-04-29T06:38:27.904Z,2608.00
2019-04-29T06:39:27.898Z,2760.00
2019-04-29T06:40:30.563Z,2700.00
2019-04-29T06:41:28.889Z,2836.00
2019-04-29T06:42:27.865Z,2888.00
2019-04-29T06:43:28.698Z,2936.00
2019-04-29T06:44:27.902Z,3032.00
2019-04-29T06:45:27.826Z,3056.00
2019-04-29T06:46:27.799Z,3068.00
2019-04-29T06:47:27.817Z,3112.00
2019-04-29T06:48:27.786Z,3340.00
2019-04-29T06:49:27.814Z,3256.00
2019-04-29T06:50:27.790Z,3452.00
2019-04-29T06:51:27.750Z,3372.00
2019-04-29T06:52:27.744Z,3400.00
2019-04-29T06:53:27.752Z,3776.00
2019-04-29T06:54:27.716Z,3612.00
2019-04-29T06:55:27.714Z,3632.00
2019-04-29T06:56:27.748Z,3432.00
2019-04-29T06:57:27.707Z,3344.00
2019-04-29T06:58:27.677Z,3428.00
2019-04-29T06:59:27.668Z,3064.00
2019-04-29T07:00:27.678Z,3084.00
2019-04-29T07:01:27.671Z,3132.00
2019-04-29T07:02:27.637Z,3100.00
2019-04-29T07:03:27.631Z,3136.00
2019-04-29T07:04:30.705Z,3432.00
2019-04-29T07:05:28.632Z,3348.00
2019-04-29T07:06:27.589Z,3608.00
2019-04-29T07:07:27.588Z,3740.00
2019-04-29T07:08:27.651Z,3836.00
2019-04-29T07:09:27.587Z,3908.00
2019-04-29T07:10:27.547Z,3848.00
2019-04-29T07:11:27.539Z,3744.00
2019-04-29T07:12:27.518Z,3732.00
2019-04-29T07:13:27.517Z,3740.00
2019-04-29T07:14:28.383Z,3636.00
2019-04-29T07:15:28.554Z,3740.00
2019-04-29T07:16:31.788Z,3772.00
2019-04-29T07:17:27.522Z,3788.00
2019-04-29T07:18:27.495Z,3532.00
2019-04-29T07:19:28.308Z,3756.00
2019-04-29T07:20:27.449Z,3780.00
2019-04-29T07:21:27.428Z,3728.00
2019-04-29T07:22:27.594Z,3716.00
2019-04-29T07:23:27.420Z,3712.00
2019-04-29T07:24:27.424Z,3660.00
2019-04-29T07:25:28.786Z,3504.00
2019-04-29T07:26:27.413Z,3440.00
2019-04-29T07:27:27.412Z,3392.00
2019-04-29T07:28:27.351Z,3340.00
2019-04-29T07:29:30.711Z,3348.00
2019-04-29T07:30:29.426Z,3320.00
2019-04-29T07:31:28.461Z,3280.00
2019-04-29T07:32:28.326Z,3240.00
2019-04-29T07:33:27.343Z,3204.00
2019-04-29T07:34:28.819Z,3064.00
2019-04-29T07:35:28.300Z,3020.00
2019-04-29T07:36:27.269Z,3096.00
2019-04-29T07:37:29.840Z,3072.00
2019-04-29T07:38:40.519Z,3116.00
2019-04-29T07:39:31.692Z,3128.00
2019-04-29T07:40:28.239Z,3204.00
2019-04-29T07:41:27.233Z,3184.00
2019-04-29T07:42:32.165Z,3200.00
2019-04-29T07:43:28.205Z,3224.00
2019-04-29T07:44:32.841Z,3208.00
2019-04-29T07:45:29.177Z,3176.00
2019-04-29T07:46:27.275Z,3148.00
2019-04-29T07:47:29.464Z,3108.00
2019-04-29T07:48:27.143Z,3088.00
2019-04-29T07:49:27.176Z,3076.00
2019-04-29T07:50:28.491Z,3056.00
2019-04-29T07:51:27.145Z,3036.00
2019-04-29T07:52:27.102Z,3048.00
2019-04-29T07:53:36.756Z,3004.00
2019-04-29T07:54:28.087Z,2984.00
2019-04-29T07:55:30.809Z,2964.00
2019-04-29T07:56:28.053Z,2868.00
2019-04-29T07:57:27.061Z,2728.00
2019-04-29T07:58:28.397Z,2620.00
2019-04-29T07:59:27.026Z,2944.00
2019-04-29T08:00:27.121Z,2936.00
2019-04-29T08:01:27.028Z,3032.00
2019-04-29T08:02:26.988Z,3056.00
2019-04-29T08:03:26.991Z,3124.00
2019-04-29T08:04:26.990Z,3096.00
2019-04-29T08:05:26.958Z,3088.00
2019-04-29T08:06:27.014Z,3104.00
2019-04-29T08:07:26.941Z,3208.00
2019-04-29T08:08:26.939Z,3264.00
2019-04-29T08:09:26.939Z,3360.00
2019-04-29T08:10:28.595Z,3452.00
2019-04-29T08:11:26.904Z,3624.00
2019-04-29T08:12:26.934Z,4052.00
2019-04-29T08:13:26.898Z,4644.00
2019-04-29T08:14:26.867Z,4764.00
2019-04-29T08:15:26.891Z,3844.00
2019-04-29T08:16:26.854Z,3612.00
2019-04-29T08:17:26.836Z,3396.00
2019-04-29T08:18:26.839Z,3744.00
2019-04-29T08:19:29.517Z,3600.00
2019-04-29T08:20:26.826Z,3556.00
2019-04-29T08:21:26.831Z,3388.00
2019-04-29T08:22:27.709Z,2892.00
2019-04-29T08:23:26.761Z,3364.00
2019-04-29T08:24:26.805Z,3572.00
2019-04-29T08:25:27.203Z,4008.00
2019-04-29T08:26:26.742Z,3772.00
2019-04-29T08:27:39.251Z,3612.00
2019-04-29T08:28:27.740Z,3880.00
2019-04-29T08:29:30.828Z,4396.00
2019-04-29T08:30:27.737Z,4076.00
2019-04-29T08:31:26.678Z,5148.00
2019-04-29T08:32:26.675Z,5196.00
2019-04-29T08:33:26.670Z,5068.00
2019-04-29T08:34:26.691Z,4612.00
2019-04-29T08:35:26.682Z,4284.00
2019-04-29T08:36:26.651Z,4248.00
2019-04-29T08:37:26.661Z,4256.00
2019-04-29T08:38:26.630Z,4400.00
2019-04-29T08:39:29.510Z,4588.00
2019-04-29T08:40:26.824Z,4628.00
2019-04-29T08:41:29.587Z,5300.00
2019-04-29T08:42:26.598Z,6128.00
2019-04-29T08:43:26.570Z,5952.00
2019-04-29T08:44:26.561Z,5160.00
2019-04-29T08:45:27.248Z,4640.00
2019-04-29T08:46:26.527Z,3956.00
2019-04-29T08:47:30.498Z,4100.00
2019-04-29T08:48:27.530Z,4024.00
2019-04-29T08:49:26.500Z,3964.00
2019-04-29T08:50:26.513Z,4088.00
2019-04-29T08:51:26.471Z,4616.00
2019-04-29T08:52:26.468Z,5488.00
2019-04-29T08:53:26.471Z,6588.00
2019-04-29T08:54:26.468Z,6548.00
2019-04-29T08:55:30.476Z,6456.00
2019-04-29T08:56:26.444Z,6416.00
2019-04-29T08:57:26.396Z,6440.00
2019-04-29T08:58:26.391Z,6700.00
2019-04-29T08:59:26.456Z,7248.00
2019-04-29T09:00:26.394Z,7264.00
2019-04-29T09:01:29.198Z,6592.00
2019-04-29T09:02:34.829Z,6588.00
2019-04-29T09:03:39.654Z,7252.00
2019-04-29T09:04:28.627Z,7680.00
2019-04-29T09:05:27.332Z,8600.00
2019-04-29T09:06:27.792Z,8076.00
2019-04-29T09:07:27.294Z,7292.00
2019-04-29T09:08:28.812Z,5476.00
2019-04-29T09:09:29.598Z,5392.00
2019-04-29T09:10:26.270Z,5368.00
2019-04-29T09:11:26.273Z,4132.00
2019-04-29T09:12:29.288Z,4008.00
2019-04-29T09:13:26.233Z,3924.00
2019-04-29T09:14:26.252Z,3384.00
2019-04-29T09:15:26.233Z,3528.00
2019-04-29T09:16:26.302Z,3696.00
2019-04-29T09:17:26.188Z,4892.00
2019-04-29T09:18:26.196Z,5056.00
2019-04-29T09:19:26.201Z,4548.00
2019-04-29T09:20:26.184Z,4364.00
2019-04-29T09:21:26.142Z,4048.00
2019-04-29T09:22:26.133Z,3920.00
2019-04-29T09:23:26.123Z,3884.00
2019-04-29T09:24:26.116Z,3872.00
2019-04-29T09:25:26.514Z,3928.00
2019-04-29T09:26:26.108Z,4040.00
2019-04-29T09:27:26.080Z,4240.00
2019-04-29T09:28:28.244Z,4204.00
2019-04-29T09:29:26.079Z,4276.00
2019-04-29T09:30:26.132Z,4432.00
2019-04-29T09:31:26.040Z,4724.00
2019-04-29T09:32:26.033Z,4888.00
2019-04-29T09:33:26.030Z,5508.00
2019-04-29T09:34:26.496Z,6148.00
2019-04-29T09:35:28.664Z,6964.00
2019-04-29T09:36:28.581Z,6116.00
2019-04-29T09:37:25.975Z,5304.00
2019-04-29T09:38:25.970Z,4992.00
2019-04-29T09:39:25.954Z,4512.00
2019-04-29T09:40:25.968Z,4196.00
2019-04-29T09:41:25.968Z,4232.00
2019-04-29T09:42:25.918Z,4728.00
2019-04-29T09:43:27.085Z,5788.00
2019-04-29T09:44:25.950Z,6820.00
2019-04-29T09:45:25.905Z,6876.00
2019-04-29T09:46:29.901Z,7024.00
2019-04-29T09:47:26.862Z,7704.00
2019-04-29T09:48:25.869Z,8196.00
2019-04-29T09:49:25.837Z,7368.00
2019-04-29T09:50:28.476Z,7164.00
2019-04-29T09:51:27.959Z,7972.00
2019-04-29T09:52:25.893Z,7712.00
2019-04-29T09:53:25.799Z,7912.00
2019-04-29T09:54:25.791Z,7016.00
2019-04-29T09:55:25.796Z,5824.00
2019-04-29T09:56:25.769Z,6304.00
2019-04-29T09:57:25.758Z,5304.00
2019-04-29T09:58:25.747Z,5340.00
2019-04-29T09:59:25.769Z,5156.00
2019-04-29T10:00:25.745Z,5228.00
2019-04-29T10:01:25.722Z,6128.00
2019-04-29T10:02:26.234Z,6676.00
2019-04-29T10:03:26.691Z,6616.00
2019-04-29T10:04:25.879Z,5432.00
2019-04-29T10:05:25.681Z,4856.00
2019-04-29T10:06:25.680Z,4012.00
2019-04-29T10:07:25.673Z,4568.00
2019-04-29T10:08:25.640Z,5844.00
2019-04-29T10:09:25.633Z,7164.00
2019-04-29T10:10:25.669Z,8644.00
2019-04-29T10:11:25.659Z,9688.00
2019-04-29T10:12:25.599Z,8888.00
2019-04-29T10:13:25.620Z,6312.00
2019-04-29T10:14:25.616Z,6244.00
2019-04-29T10:15:25.573Z,5740.00
2019-04-29T10:16:25.585Z,5388.00
2019-04-29T10:17:25.550Z,5096.00
2019-04-29T10:18:29.770Z,5292.00
2019-04-29T10:19:26.517Z,6524.00
2019-04-29T10:20:25.515Z,7156.00
2019-04-29T10:21:25.556Z,8920.00
2019-04-29T10:22:25.483Z,8340.00
2019-04-29T10:23:25.493Z,7888.00
2019-04-29T10:24:25.466Z,7732.00
2019-04-29T10:25:25.675Z,6308.00
2019-04-29T10:26:25.475Z,5960.00
2019-04-29T10:27:25.433Z,6452.00
2019-04-29T10:28:25.423Z,7100.00
2019-04-29T10:29:25.906Z,9180.00
2019-04-29T10:30:26.748Z,9144.00
2019-04-29T10:31:26.408Z,7604.00
2019-04-29T10:32:25.389Z,7192.00
2019-04-29T10:33:25.373Z,7156.00
2019-04-29T10:34:26.896Z,6304.00
2019-04-29T10:35:26.344Z,5548.00
2019-04-29T10:36:26.297Z,5136.00
2019-04-29T10:37:31.331Z,5380.00
2019-04-29T10:38:26.314Z,5068.00
2019-04-29T10:39:25.315Z,4572.00
2019-04-29T10:40:25.294Z,4880.00
2019-04-29T10:41:25.298Z,4952.00
2019-04-29T10:42:25.274Z,5476.00
2019-04-29T10:43:25.258Z,5952.00
2019-04-29T10:44:25.247Z,7556.00
2019-04-29T10:45:25.244Z,9304.00
2019-04-29T10:46:25.435Z,9372.00
2019-04-29T10:47:25.250Z,9100.00
2019-04-29T10:48:25.202Z,7844.00
2019-04-29T10:49:25.190Z,6940.00
2019-04-29T10:50:25.187Z,6380.00
2019-04-29T10:51:27.504Z,6160.00
2019-04-29T10:52:25.210Z,5136.00
2019-04-29T10:53:25.169Z,4968.00
2019-04-29T10:54:25.144Z,6092.00
2019-04-29T10:55:25.514Z,7464.00
2019-04-29T10:56:25.119Z,8108.00
2019-04-29T10:57:25.131Z,9680.00
2019-04-29T10:58:30.251Z,9308.00
2019-04-29T10:59:35.555Z,9292.00
2019-04-29T11:00:26.072Z,7604.00
2019-04-29T11:01:29.254Z,5596.00
2019-04-29T11:02:25.075Z,5104.00
2019-04-29T11:03:25.357Z,5272.00
2019-04-29T11:04:25.058Z,5712.00
2019-04-29T11:05:25.020Z,6288.00
2019-04-29T11:06:25.013Z,6616.00
2019-04-29T11:07:26.981Z,7444.00
2019-04-29T11:08:24.992Z,8820.00
2019-04-29T11:09:24.975Z,10160.00
2019-04-29T11:10:25.744Z,9840.00
2019-04-29T11:11:27.198Z,10140.00
2019-04-29T11:12:24.966Z,10484.00
2019-04-29T11:13:24.938Z,9648.00
2019-04-29T11:14:24.974Z,9192.00
2019-04-29T11:15:24.918Z,9116.00
2019-04-29T11:16:29.514Z,7868.00
2019-04-29T11:17:26.160Z,6748.00
2019-04-29T11:18:25.118Z,6292.00
2019-04-29T11:19:24.875Z,6076.00
2019-04-29T11:20:24.863Z,6316.00
2019-04-29T11:21:25.036Z,6500.00
2019-04-29T11:22:24.866Z,6916.00
2019-04-29T11:23:24.830Z,7976.00
2019-04-29T11:24:24.818Z,8992.00
2019-04-29T11:25:24.808Z,9864.00
2019-04-29T11:26:24.792Z,10496.00
2019-04-29T11:27:24.785Z,10340.00
2019-04-29T11:28:24.829Z,9696.00
2019-04-29T11:29:27.446Z,9620.00
2019-04-29T11:30:24.749Z,10676.00
2019-04-29T11:31:24.740Z,12168.00
2019-04-29T11:32:28.826Z,12716.00
2019-04-29T11:33:24.723Z,12892.00
2019-04-29T11:34:24.740Z,12288.00
2019-04-29T11:35:28.434Z,11860.00
2019-04-29T11:36:25.688Z,11500.00
2019-04-29T11:37:24.676Z,10228.00
2019-04-29T11:38:24.681Z,9340.00
2019-04-29T11:39:24.657Z,7836.00
2019-04-29T11:40:35.179Z,6556.00
2019-04-29T11:41:25.634Z,6740.00
2019-04-29T11:42:24.651Z,7176.00
2019-04-29T11:43:24.616Z,8056.00
2019-04-29T11:44:26.625Z,9276.00
2019-04-29T11:45:24.592Z,10192.00
2019-04-29T11:46:24.589Z,11376.00
2019-04-29T11:47:25.263Z,12288.00
2019-04-29T11:48:24.662Z,12864.00
2019-04-29T11:49:24.551Z,14332.00
2019-04-29T11:50:26.947Z,13092.00
2019-04-29T11:51:24.527Z,12960.00
2019-04-29T11:52:28.147Z,12040.00
2019-04-29T11:53:24.525Z,10192.00
2019-04-29T11:54:24.491Z,8800.00
2019-04-29T11:55:24.487Z,8104.00
2019-04-29T11:56:24.484Z,8260.00
2019-04-29T11:57:24.467Z,8944.00
2019-04-29T11:58:24.447Z,9564.00
2019-04-29T11:59:24.576Z,9860.00
2019-04-29T12:00:24.428Z,10436.00
2019-04-29T12:01:37.755Z,11256.00
2019-04-29T12:02:44.209Z,12136.00
2019-04-29T12:03:25.415Z,12824.00
2019-04-29T12:04:28.636Z,12884.00
2019-04-29T12:05:25.371Z,12872.00
2019-04-29T12:06:24.377Z,12456.00
2019-04-29T12:07:31.700Z,11064.00
2019-04-29T12:08:25.361Z,9436.00
2019-04-29T12:09:25.333Z,8032.00
2019-04-29T12:10:25.320Z,6180.00
2019-04-29T12:11:28.149Z,5480.00
2019-04-29T12:12:25.318Z,5360.00
2019-04-29T12:13:28.197Z,5144.00
2019-04-29T12:14:24.288Z,5504.00
2019-04-29T12:15:24.271Z,6180.00
2019-04-29T12:16:24.819Z,7392.00
2019-04-29T12:17:24.246Z,9708.00
2019-04-29T12:18:24.351Z,12520.00
2019-04-29T12:19:24.227Z,14220.00
2019-04-29T12:20:24.251Z,14492.00
2019-04-29T12:21:25.709Z,14660.00
2019-04-29T12:22:30.197Z,14980.00
2019-04-29T12:23:25.195Z,15248.00
2019-04-29T12:24:24.169Z,15472.00
2019-04-29T12:25:27.629Z,15152.00
2019-04-29T12:26:24.151Z,15512.00
2019-04-29T12:27:24.166Z,15104.00